createdAt,value
2022-10-09T00:01:23.785Z,101844.28
2022-10-09T00:03:53.877Z,101877.66
2022-10-09T00:06:24.242Z,101888.41
2022-10-09T00:08:52.471Z,101880.53
2022-10-09T00:11:28.090Z,101881.59
2022-10-09T00:14:11.285Z,101879.28
2022-10-09T00:16:40.737Z,101887.50
2022-10-09T00:19:08.760Z,101887.16
2022-10-09T00:21:36.769Z,101885.00
2022-10-09T00:24:06.186Z,101890.75
2022-10-09T00:26:40.118Z,101865.41
2022-10-09T00:29:08.429Z,101880.13
2022-10-09T00:31:36.367Z,101883.91
2022-10-09T00:34:06.558Z,101872.03
2022-10-09T00:36:34.457Z,101877.06
2022-10-09T00:39:02.370Z,101891.44
2022-10-09T00:41:34.538Z,101893.03
2022-10-09T00:44:05.872Z,101887.84
2022-10-09T00:46:37.586Z,101895.38
2022-10-09T00:49:15.857Z,101886.75
2022-10-09T00:51:46.863Z,101884.25
2022-10-09T00:54:17.371Z,101890.53
2022-10-09T00:56:45.481Z,101897.50
2022-10-09T00:59:14.622Z,101892.47
2022-10-09T01:01:43.046Z,101894.47
2022-10-09T01:04:12.613Z,101900.91
2022-10-09T01:07:08.583Z,101891.22
2022-10-09T01:09:51.742Z,101894.41
2022-10-09T01:12:27.129Z,101890.13
2022-10-09T01:15:04.188Z,101892.06
2022-10-09T01:17:39.994Z,101895.84
2022-10-09T01:20:39.942Z,101893.31
2022-10-09T01:23:52.439Z,101903.38
2022-10-09T01:27:16.777Z,101903.19
2022-10-09T01:29:51.132Z,101899.41
2022-10-09T01:32:22.907Z,101882.00
2022-10-09T01:34:52.785Z,101900.13
2022-10-09T01:37:23.153Z,101904.09
2022-10-09T01:39:52.875Z,101906.94
2022-10-09T01:42:23.790Z,101894.91
2022-10-09T01:45:00.409Z,101902.25
2022-10-09T01:47:28.935Z,101896.47
2022-10-09T01:50:06.606Z,101875.63
2022-10-09T01:52:47.023Z,101901.84
2022-10-09T01:55:26.933Z,101900.56
2022-10-09T01:58:08.559Z,101895.16
2022-10-09T02:00:49.433Z,101898.41
2022-10-09T02:03:18.507Z,101899.13
2022-10-09T02:05:49.590Z,101850.78
2022-10-09T02:08:21.771Z,101899.63
2022-10-09T02:10:53.410Z,101892.81
2022-10-09T02:13:22.168Z,101892.78
2022-10-09T02:15:54.969Z,101892.28
2022-10-09T02:21:17.939Z,101892.97
2022-10-09T02:23:47.441Z,101890.44
2022-10-09T02:26:19.429Z,101892.28
2022-10-09T02:28:47.847Z,101883.25
2022-10-09T02:31:28.652Z,101898.53
2022-10-09T02:34:01.931Z,101886.50
2022-10-09T02:36:30.996Z,101895.44
2022-10-09T02:39:00.163Z,101888.97
2022-10-09T02:41:28.351Z,101900.47
2022-10-09T02:43:56.132Z,101895.25
2022-10-09T02:46:29.578Z,101901.69
2022-10-09T02:48:58.092Z,101893.75
2022-10-09T02:51:26.938Z,101896.66
2022-10-09T02:53:55.583Z,101900.03
2022-10-09T02:56:38.811Z,101901.47
2022-10-09T02:59:07.415Z,101905.19
2022-10-09T03:01:36.891Z,101905.50
2022-10-09T03:04:04.967Z,101906.03
2022-10-09T03:06:33.987Z,101911.38
2022-10-09T03:09:04.816Z,101907.78
2022-10-09T03:11:32.663Z,101901.50
2022-10-09T03:14:00.571Z,101905.25
2022-10-09T03:16:28.536Z,101908.44
2022-10-09T03:19:06.364Z,101903.94
2022-10-09T03:21:37.320Z,101903.75
2022-10-09T03:24:05.544Z,101907.31
2022-10-09T03:26:33.446Z,101897.75
2022-10-09T03:29:01.559Z,101907.81
2022-10-09T03:34:18.531Z,101911.59
2022-10-09T03:36:46.712Z,101902.63
2022-10-09T03:39:17.702Z,101915.00
2022-10-09T03:41:47.625Z,101874.06
2022-10-09T03:44:15.530Z,101909.09
2022-10-09T03:46:46.594Z,101899.19
2022-10-09T03:49:20.449Z,101906.03
2022-10-09T03:51:48.231Z,101904.75
2022-10-09T03:54:16.165Z,101904.22
2022-10-09T03:56:44.019Z,101908.13
2022-10-09T03:59:11.927Z,101904.34
2022-10-09T04:01:39.749Z,101908.44
2022-10-09T04:04:15.159Z,101912.59
2022-10-09T04:06:45.242Z,101920.63
2022-10-09T04:09:17.214Z,101918.63
2022-10-09T04:11:45.046Z,101918.44
2022-10-09T04:14:20.556Z,101930.06
2022-10-09T04:16:50.596Z,101937.00
2022-10-09T04:19:18.586Z,101934.81
2022-10-09T04:21:47.797Z,101928.72
2022-10-09T04:24:15.809Z,101932.81
2022-10-09T04:26:43.636Z,101932.63
2022-10-09T04:29:14.675Z,101934.97
2022-10-09T04:31:42.518Z,101926.53
2022-10-09T04:34:13.429Z,101926.59
2022-10-09T04:36:41.398Z,101930.44
2022-10-09T04:39:10.693Z,101933.31
2022-10-09T04:41:41.668Z,101933.53
2022-10-09T04:44:10.397Z,101934.06
2022-10-09T04:46:44.261Z,101939.06
2022-10-09T04:49:12.946Z,101939.06
2022-10-09T04:51:43.008Z,101926.16
2022-10-09T04:54:20.334Z,101934.78
2022-10-09T04:56:48.199Z,101934.38
2022-10-09T04:59:15.974Z,101935.09
2022-10-09T05:01:43.823Z,101932.19
2022-10-09T05:04:17.980Z,101939.69
2022-10-09T05:06:45.801Z,101949.34
2022-10-09T05:09:16.980Z,101945.75
2022-10-09T05:11:44.742Z,101941.22
2022-10-09T05:14:12.777Z,101944.44
2022-10-09T05:17:08.428Z,101948.56
2022-10-09T05:19:28.769Z,101939.56
2022-10-09T05:21:58.416Z,101939.94
2022-10-09T05:24:28.165Z,101947.66
2022-10-09T05:26:55.991Z,101941.94
2022-10-09T05:29:23.909Z,101946.78
2022-10-09T05:31:51.673Z,101956.78
2022-10-09T05:34:19.505Z,101949.28
2022-10-09T05:36:47.354Z,101953.94
2022-10-09T05:39:20.971Z,101948.44
2022-10-09T05:41:52.548Z,101954.34
2022-10-09T05:44:23.095Z,101947.03
2022-10-09T05:46:50.870Z,101947.53
2022-10-09T05:49:18.811Z,101956.53
2022-10-09T05:51:46.538Z,101950.13
2022-10-09T05:54:16.568Z,101946.69
2022-10-09T05:56:45.793Z,101949.41
2022-10-09T05:59:19.408Z,101928.03
2022-10-09T06:01:50.082Z,101955.50
2022-10-09T06:04:20.067Z,101951.59
2022-10-09T06:06:51.547Z,101956.97
2022-10-09T06:09:22.198Z,101956.97
2022-10-09T06:11:53.157Z,101958.06
2022-10-09T06:14:23.065Z,101959.38
2022-10-09T06:17:01.717Z,101957.06
2022-10-09T06:19:32.311Z,101964.25
2022-10-09T06:22:00.041Z,101968.22
2022-10-09T06:24:29.362Z,101966.09
2022-10-09T06:27:00.579Z,101962.59
2022-10-09T06:29:32.678Z,101967.66
2022-10-09T06:32:00.464Z,101964.09
2022-10-09T06:34:28.370Z,101960.75
2022-10-09T06:37:01.960Z,101961.13
2022-10-09T06:39:29.840Z,101961.34
2022-10-09T06:42:00.758Z,101958.47
2022-10-09T06:44:43.393Z,101958.16
2022-10-09T06:47:11.410Z,101955.88
2022-10-09T06:49:39.204Z,101954.22
2022-10-09T06:52:06.985Z,101955.75
2022-10-09T06:54:34.945Z,101956.31
2022-10-09T06:57:06.080Z,101955.97
2022-10-09T06:59:36.342Z,101963.03
2022-10-09T07:02:07.863Z,101956.09
2022-10-09T07:04:37.542Z,101956.84
2022-10-09T07:07:05.400Z,101960.28
2022-10-09T07:09:33.192Z,101968.19
2022-10-09T07:12:01.148Z,101965.69
2022-10-09T07:14:30.642Z,101969.13
2022-10-09T07:17:01.390Z,101969.72
2022-10-09T07:19:30.507Z,101969.72
2022-10-09T07:22:00.458Z,101976.59
2022-10-09T07:24:28.216Z,101974.09
2022-10-09T07:26:59.671Z,101982.91
2022-10-09T07:29:28.561Z,101983.81
2022-10-09T07:31:56.369Z,101989.75
2022-10-09T07:34:24.414Z,101990.16
2022-10-09T07:36:53.547Z,101994.66
2022-10-09T07:39:21.662Z,101996.28
2022-10-09T07:41:51.642Z,101995.59
2022-10-09T07:44:19.867Z,102002.09
2022-10-09T07:46:50.300Z,102001.03
2022-10-09T07:49:21.363Z,102006.06
2022-10-09T07:51:49.755Z,101999.41
2022-10-09T07:54:19.071Z,102012.91
2022-10-09T07:56:49.387Z,102003.03
2022-10-09T07:59:23.203Z,102003.78
2022-10-09T08:01:51.039Z,102001.63
2022-10-09T08:04:22.172Z,102000.56
2022-10-09T08:06:49.978Z,101999.13
2022-10-09T08:09:21.939Z,101999.50
2022-10-09T08:11:49.782Z,101992.63
2022-10-09T08:14:19.652Z,101994.78
2022-10-09T08:16:48.128Z,101995.50
2022-10-09T08:19:16.695Z,101991.72
2022-10-09T08:21:50.681Z,101995.31
2022-10-09T08:24:18.645Z,101998.56
2022-10-09T08:26:50.779Z,101996.53
2022-10-09T08:29:20.855Z,101999.06
2022-10-09T08:31:48.666Z,101976.78
2022-10-09T08:34:16.923Z,101979.59
2022-10-09T08:36:44.865Z,101979.41
2022-10-09T08:39:25.003Z,102009.00
2022-10-09T08:41:57.668Z,102007.84
2022-10-09T08:44:29.077Z,102004.34
2022-10-09T08:47:10.318Z,102002.16
2022-10-09T08:49:46.733Z,101991.63
2022-10-09T08:52:34.726Z,101990.13
2022-10-09T08:55:12.023Z,101978.53
2022-10-09T08:57:41.733Z,101981.53
2022-10-09T09:00:16.389Z,101974.16
2022-10-09T09:03:17.614Z,101974.19
2022-10-09T09:05:51.952Z,101982.63
2022-10-09T09:08:32.165Z,101976.31
2022-10-09T09:11:20.639Z,101977.47
2022-10-09T09:14:03.521Z,101973.63
2022-10-09T09:16:42.022Z,101973.38
2022-10-09T09:19:38.355Z,101976.41
2022-10-09T09:22:16.687Z,101971.38
2022-10-09T09:24:52.400Z,101961.94
2022-10-09T09:27:37.718Z,101969.88
2022-10-09T09:30:17.957Z,101965.25
2022-10-09T09:33:03.600Z,101967.88
2022-10-09T09:35:39.535Z,101976.78
2022-10-09T09:38:07.293Z,101964.75
2022-10-09T09:40:37.733Z,101967.69
2022-10-09T09:43:26.861Z,101965.09
2022-10-09T09:46:01.729Z,101963.34
2022-10-09T09:48:36.121Z,101953.53
2022-10-09T09:51:27.043Z,101957.13
2022-10-09T09:53:58.878Z,101946.59
2022-10-09T09:56:53.265Z,101952.44
2022-10-09T09:59:38.092Z,101937.56
2022-10-09T10:02:16.078Z,101933.19
2022-10-09T10:05:08.698Z,101933.50
2022-10-09T10:07:38.763Z,101934.69
2022-10-09T10:10:08.363Z,101929.34
2022-10-09T10:12:42.018Z,101927.78
2022-10-09T10:15:19.898Z,101924.84
2022-10-09T10:17:58.695Z,101921.13
2022-10-09T10:20:43.606Z,101923.22
2022-10-09T10:23:27.623Z,101922.38
2022-10-09T10:25:57.876Z,101924.78
2022-10-09T10:28:32.714Z,101914.06
2022-10-09T10:31:04.125Z,101909.19
2022-10-09T10:33:36.867Z,101910.06
2022-10-09T10:36:06.556Z,101904.72
2022-10-09T10:38:40.402Z,101917.25
2022-10-09T10:41:15.198Z,101906.94
2022-10-09T10:43:46.712Z,101904.69
2022-10-09T10:46:22.061Z,101909.94
2022-10-09T10:48:53.875Z,101901.44
2022-10-09T10:51:38.926Z,101886.09
2022-10-09T10:54:23.505Z,101884.44
2022-10-09T10:56:54.864Z,101888.63
2022-10-09T10:59:39.684Z,101879.38
2022-10-09T11:02:39.456Z,101875.34
2022-10-09T11:05:27.087Z,101877.56
2022-10-09T11:08:15.557Z,101874.28
2022-10-09T11:10:57.252Z,101876.50
2022-10-09T11:13:32.207Z,101865.91
2022-10-09T11:16:14.890Z,101848.59
2022-10-09T11:19:11.785Z,101857.38
2022-10-09T11:21:59.271Z,101858.28
2022-10-09T11:24:55.347Z,101855.31
2022-10-09T11:27:27.948Z,101859.47
2022-10-09T11:30:00.851Z,101842.25
2022-10-09T11:32:33.563Z,101837.94
2022-10-09T11:35:21.344Z,101842.22
2022-10-09T11:38:00.091Z,101835.50
2022-10-09T11:40:35.615Z,101830.97
2022-10-09T11:43:19.868Z,101822.94
2022-10-09T11:45:54.534Z,101824.56
2022-10-09T11:48:34.396Z,101823.19
2022-10-09T11:51:12.856Z,101812.31
2022-10-09T11:53:44.144Z,101813.75
2022-10-09T11:56:22.905Z,101809.16
2022-10-09T11:58:58.538Z,101795.75
2022-10-09T12:01:33.662Z,101795.75
2022-10-09T12:04:04.257Z,101796.91
2022-10-09T12:06:46.045Z,101797.94
2022-10-09T12:09:23.921Z,101790.34
2022-10-09T12:12:07.143Z,101784.53
2022-10-09T12:14:37.135Z,101783.22
2022-10-09T12:17:16.792Z,101786.03
2022-10-09T12:19:47.812Z,101780.47
2022-10-09T12:22:18.861Z,101772.75
2022-10-09T12:24:50.983Z,101732.75
2022-10-09T12:27:22.308Z,101764.69
2022-10-09T12:29:55.527Z,101762.22
2022-10-09T12:32:29.441Z,101764.13
2022-10-09T12:34:58.202Z,101759.03
2022-10-09T12:37:34.879Z,101762.75
2022-10-09T12:40:17.844Z,101747.38
2022-10-09T12:42:56.352Z,101752.00
2022-10-09T12:45:27.663Z,101742.31
2022-10-09T12:47:56.297Z,101741.41
2022-10-09T12:50:34.573Z,101737.09
2022-10-09T12:53:05.179Z,101727.56
2022-10-09T12:55:45.423Z,101721.41
2022-10-09T12:58:19.381Z,101726.75
2022-10-09T13:00:52.143Z,101711.19
2022-10-09T13:03:35.692Z,101714.13
2022-10-09T13:06:05.046Z,101708.47
2022-10-09T13:08:37.142Z,101698.31
2022-10-09T13:11:18.978Z,101704.00
2022-10-09T13:13:50.697Z,101701.19
2022-10-09T13:16:23.044Z,101695.94
2022-10-09T13:18:57.360Z,101690.59
2022-10-09T13:21:29.142Z,101691.75
2022-10-09T13:24:26.780Z,101685.78
2022-10-09T13:26:56.001Z,101683.53
2022-10-09T13:29:26.793Z,101665.47
2022-10-09T13:31:54.705Z,101670.84
2022-10-09T13:34:23.704Z,101670.06
2022-10-09T13:36:52.547Z,101667.41
2022-10-09T13:39:20.317Z,101664.75
2022-10-09T13:41:55.729Z,101656.31
2022-10-09T13:44:25.094Z,101661.09
2022-10-09T13:46:54.355Z,101655.75
2022-10-09T13:49:25.237Z,101653.69
2022-10-09T13:51:53.037Z,101657.25
2022-10-09T13:54:30.136Z,101658.28
2022-10-09T13:57:05.157Z,101649.44
2022-10-09T13:59:34.487Z,101627.69
2022-10-09T14:02:27.404Z,101648.34
2022-10-09T14:04:58.579Z,101648.75
2022-10-09T14:07:26.854Z,101635.31
2022-10-09T14:09:54.645Z,101632.28
2022-10-09T14:12:22.983Z,101630.50
2022-10-09T14:14:53.849Z,101632.41
2022-10-09T14:17:27.865Z,101625.69
2022-10-09T14:19:56.128Z,101614.66
2022-10-09T14:22:24.023Z,101615.19
2022-10-09T14:24:51.810Z,101607.41
2022-10-09T14:27:23.743Z,101607.41
2022-10-09T14:29:55.329Z,101599.66
2022-10-09T14:32:26.012Z,101593.84
2022-10-09T14:34:54.071Z,101591.88
2022-10-09T14:37:40.379Z,101599.63
2022-10-09T14:40:12.223Z,101573.31
2022-10-09T14:42:40.817Z,101591.91
2022-10-09T14:45:11.628Z,101589.44
2022-10-09T14:47:39.399Z,101590.81
2022-10-09T14:50:08.106Z,101585.88
2022-10-09T14:52:36.048Z,101576.63
2022-10-09T14:55:03.871Z,101574.78
2022-10-09T14:57:35.220Z,101576.03
2022-10-09T15:00:06.687Z,101571.03
2022-10-09T15:02:38.434Z,101571.38
2022-10-09T15:05:06.966Z,101562.47
2022-10-09T15:07:34.728Z,101567.47
2022-10-09T15:10:06.285Z,101564.06
2022-10-09T15:12:34.065Z,101565.63
2022-10-09T15:15:01.810Z,101553.59
2022-10-09T15:17:29.574Z,101553.38
2022-10-09T15:19:58.775Z,101548.28
2022-10-09T15:22:26.549Z,101542.59
2022-10-09T15:24:54.354Z,101537.75
2022-10-09T15:27:22.102Z,101525.13
2022-10-09T15:29:49.852Z,101524.84
2022-10-09T15:32:17.623Z,101520.72
2022-10-09T15:34:45.417Z,101517.94
2022-10-09T15:37:18.372Z,101516.47
2022-10-09T15:39:46.192Z,101510.13
2022-10-09T15:42:14.019Z,101507.75
2022-10-09T15:44:43.464Z,101510.16
2022-10-09T15:47:16.341Z,101495.50
2022-10-09T15:49:45.941Z,101504.72
2022-10-09T15:52:22.066Z,101493.41
2022-10-09T15:54:53.115Z,101502.25
2022-10-09T15:57:26.119Z,101493.19
2022-10-09T15:59:53.936Z,101492.03
2022-10-09T16:02:24.721Z,101491.44
2022-10-09T16:04:52.525Z,101489.38
2022-10-09T16:07:22.409Z,101488.81
2022-10-09T16:09:51.711Z,101484.97
2022-10-09T16:12:19.471Z,101484.25
2022-10-09T16:14:47.242Z,101468.78
2022-10-09T16:17:18.372Z,101477.88
2022-10-09T16:19:46.104Z,101479.09
2022-10-09T16:22:21.257Z,101489.53
2022-10-09T16:24:49.269Z,101473.91
2022-10-09T16:27:18.428Z,101463.53
2022-10-09T16:29:46.167Z,101470.97
2022-10-09T16:32:13.997Z,101464.44
2022-10-09T16:34:43.840Z,101464.75
2022-10-09T16:37:19.086Z,101461.63
2022-10-09T16:39:46.865Z,101456.47
2022-10-09T16:42:14.602Z,101453.63
2022-10-09T16:44:43.875Z,101463.16
2022-10-09T16:47:14.012Z,101452.19
2022-10-09T16:49:41.909Z,101459.16
2022-10-09T16:52:09.871Z,101460.38
2022-10-09T16:54:38.788Z,101457.38
2022-10-09T16:57:09.026Z,101466.19
2022-10-09T16:59:37.133Z,101440.19
2022-10-09T17:02:07.190Z,101460.09
2022-10-09T17:04:35.485Z,101454.25
2022-10-09T17:07:06.310Z,101456.34
2022-10-09T17:09:38.244Z,101453.06
2022-10-09T17:12:07.622Z,101459.00
2022-10-09T17:14:36.456Z,101452.00
2022-10-09T17:17:04.512Z,101445.00
2022-10-09T17:19:33.791Z,101454.53
2022-10-09T17:22:01.849Z,101454.06
2022-10-09T17:24:44.394Z,101456.88
2022-10-09T17:27:12.164Z,101455.38
2022-10-09T17:29:41.031Z,101451.50
2022-10-09T17:32:14.140Z,101445.97
2022-10-09T17:34:45.910Z,101447.00
2022-10-09T17:37:21.822Z,101458.88
2022-10-09T17:39:52.195Z,101458.44
2022-10-09T17:42:21.904Z,101462.09
2022-10-09T17:44:49.836Z,101458.81
2022-10-09T17:47:19.789Z,101454.94
2022-10-09T17:49:52.238Z,101459.84
2022-10-09T17:52:20.138Z,101449.00
2022-10-09T17:54:47.960Z,101449.91
2022-10-09T17:57:15.968Z,101448.09
2022-10-09T17:59:43.788Z,101440.38
2022-10-09T18:02:11.770Z,101443.38
2022-10-09T18:04:39.556Z,101436.38
2022-10-09T18:07:08.827Z,101442.06
2022-10-09T18:09:36.731Z,101432.53
2022-10-09T18:12:04.810Z,101426.44
2022-10-09T18:14:32.649Z,101431.47
2022-10-09T18:17:00.455Z,101431.19
2022-10-09T18:19:28.435Z,101430.28
2022-10-09T18:21:56.260Z,101428.19
2022-10-09T18:24:25.596Z,101421.78
2022-10-09T18:26:53.399Z,101427.28
2022-10-09T18:29:24.458Z,101419.22
2022-10-09T18:31:55.625Z,101412.84
2022-10-09T18:34:23.963Z,101418.00
2022-10-09T18:36:52.295Z,101413.22
2022-10-09T18:39:21.483Z,101412.56
2022-10-09T18:41:54.056Z,101409.00
2022-10-09T18:44:24.135Z,101403.63
2022-10-09T18:46:57.376Z,101399.03
2022-10-09T18:49:31.501Z,101397.78
2022-10-09T18:52:00.739Z,101398.41
2022-10-09T18:54:30.545Z,101408.00
2022-10-09T18:56:59.821Z,101395.66
2022-10-09T18:59:27.697Z,101399.34
2022-10-09T19:01:55.550Z,101397.97
2022-10-09T19:04:23.976Z,101394.66
2022-10-09T19:06:52.244Z,101390.63
2022-10-09T19:09:20.698Z,101393.22
2022-10-09T19:11:52.533Z,101392.59
2022-10-09T19:14:21.950Z,101390.50
2022-10-09T19:16:52.751Z,101393.59
2022-10-09T19:19:20.687Z,101387.19
2022-10-09T19:21:48.457Z,101366.50
2022-10-09T19:24:16.271Z,101385.63
2022-10-09T19:26:50.118Z,101380.69
2022-10-09T19:29:18.045Z,101380.69
2022-10-09T19:31:55.867Z,101381.25
2022-10-09T19:34:24.024Z,101385.09
2022-10-09T19:36:52.335Z,101382.56
2022-10-09T19:39:20.274Z,101378.44
2022-10-09T19:41:51.092Z,101380.19
2022-10-09T19:44:19.511Z,101376.47
2022-10-09T19:46:54.695Z,101376.47
2022-10-09T19:49:22.566Z,101372.59
2022-10-09T19:51:50.781Z,101382.50
2022-10-09T19:54:18.741Z,101367.22
2022-10-09T19:56:46.539Z,101371.03
2022-10-09T19:59:23.068Z,101366.75
2022-10-09T20:01:57.236Z,101370.38
2022-10-09T20:04:25.550Z,101369.53
2022-10-09T20:06:55.882Z,101285.38
2022-10-09T20:09:23.706Z,101362.53
2022-10-09T20:11:51.739Z,101365.59
2022-10-09T20:14:20.463Z,101365.44
2022-10-09T20:16:48.416Z,101362.44
2022-10-09T20:19:17.627Z,101363.94
2022-10-09T20:21:45.421Z,101364.94
2022-10-09T20:24:13.171Z,101347.28
2022-10-09T20:26:43.174Z,101353.13
2022-10-09T20:29:11.668Z,101340.63
2022-10-09T20:31:40.148Z,101334.59
2022-10-09T20:34:08.202Z,101344.59
2022-10-09T20:36:39.193Z,101338.34
2022-10-09T20:39:09.665Z,101332.41
2022-10-09T20:41:37.874Z,101325.84
2022-10-09T20:44:06.793Z,101330.00
2022-10-09T20:46:36.627Z,101332.91
2022-10-09T20:49:06.749Z,101324.88
2022-10-09T20:51:39.530Z,101327.19
2022-10-09T20:54:10.384Z,101323.31
2022-10-09T20:56:40.860Z,101317.22
2022-10-09T20:59:11.423Z,101321.75
2022-10-09T21:01:46.867Z,101315.34
2022-10-09T21:04:14.831Z,101313.38
2022-10-09T21:06:44.574Z,101318.78
2022-10-09T21:09:12.339Z,101315.06
2022-10-09T21:11:49.099Z,101315.31
2022-10-09T21:14:16.840Z,101313.19
2022-10-09T21:16:44.854Z,101314.47
2022-10-09T21:19:21.354Z,101320.44
2022-10-09T21:21:52.376Z,101314.34
2022-10-09T21:24:53.461Z,101322.25
2022-10-09T21:27:21.334Z,101316.88
2022-10-09T21:29:49.408Z,101320.69
2022-10-09T21:32:20.079Z,101314.59
2022-10-09T21:34:48.004Z,101271.00
2022-10-09T21:37:22.047Z,101304.06
2022-10-09T21:39:50.253Z,101294.72
2022-10-09T21:42:25.476Z,101297.22
2022-10-09T21:44:53.192Z,101293.00
2022-10-09T21:47:24.050Z,101296.94
2022-10-09T21:49:51.988Z,101292.50
2022-10-09T21:52:21.120Z,101294.88
2022-10-09T21:54:48.875Z,101286.06
2022-10-09T21:57:16.721Z,101277.47
2022-10-09T21:59:44.568Z,101279.81
2022-10-09T22:02:12.762Z,101281.44
2022-10-09T22:04:43.912Z,101271.81
2022-10-09T22:07:11.729Z,101262.31
2022-10-09T22:09:44.032Z,101263.91
2022-10-09T22:12:11.894Z,101266.28
2022-10-09T22:14:39.789Z,101272.19
2022-10-09T22:17:07.624Z,101256.97
2022-10-09T22:19:35.424Z,101254.84
2022-10-09T22:22:03.289Z,101249.63
2022-10-09T22:24:31.397Z,101249.38
2022-10-09T22:27:00.652Z,101244.59
2022-10-09T22:29:28.527Z,101238.88
2022-10-09T22:31:56.363Z,101245.66
2022-10-09T22:34:24.211Z,101244.13
2022-10-09T22:36:52.077Z,101205.22
2022-10-09T22:39:19.891Z,101240.25
2022-10-09T22:41:47.755Z,101239.34
2022-10-09T22:44:16.947Z,101240.78
2022-10-09T22:46:45.623Z,101232.56
2022-10-09T22:49:16.076Z,101195.91
2022-10-09T22:51:44.790Z,101229.44
2022-10-09T22:54:13.694Z,101215.09
2022-10-09T22:56:43.359Z,101219.88
2022-10-09T22:59:28.906Z,101220.78
2022-10-09T23:02:00.028Z,101208.41
2022-10-09T23:04:30.890Z,101207.69
2022-10-09T23:07:00.113Z,101192.63
2022-10-09T23:09:30.346Z,101192.97
2022-10-09T23:11:59.343Z,101182.81
2022-10-09T23:14:27.800Z,101191.91
2022-10-09T23:16:55.615Z,101193.34
2022-10-09T23:19:27.868Z,101189.97
2022-10-09T23:21:55.667Z,101190.13
2022-10-09T23:24:23.483Z,101190.13
2022-10-09T23:26:57.649Z,101191.56
2022-10-09T23:29:34.521Z,101191.25
2022-10-09T23:32:03.090Z,101196.97
2022-10-09T23:34:32.275Z,101189.28
2022-10-09T23:37:02.458Z,101189.47
2022-10-09T23:39:32.414Z,101171.19
2022-10-09T23:42:00.231Z,101166.16
2022-10-09T23:44:28.059Z,101166.88
2022-10-09T23:46:56.229Z,101157.22
2022-10-09T23:49:24.025Z,101171.06
2022-10-09T23:51:53.393Z,101162.84
2022-10-09T23:54:23.494Z,101161.31
2022-10-09T23:56:51.281Z,101157.72
2022-10-09T23:59:26.532Z,101156.66
